createdAt,value
2022-11-02T11:30:39.704Z,1.73
2022-11-02T11:33:15.892Z,2.10
2022-11-02T11:35:48.209Z,2.10
2022-11-02T11:38:17.438Z,1.60
2022-11-02T11:40:45.500Z,1.75
2022-11-02T11:43:16.196Z,1.77
2022-11-02T11:45:54.766Z,2.00
2022-11-02T11:48:27.843Z,1.90
2022-11-02T11:50:55.036Z,2.08
2022-11-02T11:53:28.604Z,1.85
2022-11-02T11:56:00.196Z,2.10
2022-11-02T11:58:28.346Z,1.70
2022-11-02T12:01:17.117Z,2.15
2022-11-02T12:03:51.508Z,1.80
2022-11-02T12:06:30.524Z,1.75
2022-11-02T12:09:06.842Z,1.63
2022-11-02T12:11:39.674Z,2.08
2022-11-02T12:14:10.631Z,1.88
2022-11-02T12:17:03.451Z,1.38
2022-11-02T12:19:39.644Z,2.15
2022-11-02T12:22:13.071Z,1.98
2022-11-02T12:24:59.120Z,1.98
2022-11-02T12:28:01.463Z,1.80
2022-11-02T12:30:43.296Z,2.10
2022-11-02T12:33:29.119Z,2.20
2022-11-02T12:35:59.322Z,1.80
2022-11-02T12:38:26.406Z,1.73
2022-11-02T12:41:08.503Z,2.00
2022-11-02T12:43:35.574Z,2.00
2022-11-02T12:46:05.772Z,2.05
2022-11-02T12:48:55.629Z,1.75
2022-11-02T12:51:25.567Z,2.30
2022-11-02T12:53:56.279Z,1.90
2022-11-02T12:56:26.118Z,1.80
2022-11-02T12:58:53.280Z,1.60
2022-11-02T13:01:20.533Z,1.58
2022-11-02T13:03:51.602Z,1.70
2022-11-02T13:06:22.430Z,2.20
2022-11-02T13:09:09.792Z,1.83
2022-11-02T13:11:39.776Z,2.00
2022-11-02T13:14:14.402Z,1.60
2022-11-02T13:16:49.186Z,1.65
2022-11-02T13:19:21.467Z,1.80
2022-11-02T13:21:54.710Z,1.75
2022-11-02T13:24:31.662Z,1.73
2022-11-02T13:27:13.785Z,2.00
2022-11-02T13:29:45.208Z,1.67
2022-11-02T13:32:34.297Z,1.52
2022-11-02T13:35:05.587Z,2.13
2022-11-02T13:37:39.045Z,1.70
2022-11-02T13:40:09.453Z,1.80
2022-11-02T13:42:42.605Z,2.00
2022-11-02T13:45:24.266Z,2.10
2022-11-02T13:47:54.399Z,2.10
2022-11-02T13:50:23.680Z,1.70
2022-11-02T13:52:50.749Z,2.03
2022-11-02T13:55:22.410Z,1.98
2022-11-02T13:57:50.859Z,2.45
2022-11-02T14:00:24.050Z,1.92
2022-11-02T14:02:55.149Z,1.90
2022-11-02T14:05:28.484Z,1.90
2022-11-02T14:07:55.616Z,1.95
2022-11-02T14:10:22.704Z,1.83
2022-11-02T14:12:50.450Z,1.95
2022-11-02T14:15:17.571Z,1.83
2022-11-02T14:17:53.882Z,2.22
2022-11-02T14:20:41.270Z,2.10
2022-11-02T14:23:28.356Z,3.42
2022-11-02T14:25:56.537Z,2.20
2022-11-02T14:28:25.627Z,1.70
2022-11-02T14:30:55.706Z,2.17
2022-11-02T14:33:32.513Z,2.03
2022-11-02T14:36:01.545Z,2.20
2022-11-02T14:38:37.825Z,2.00
2022-11-02T14:41:19.099Z,1.98
2022-11-02T14:44:05.150Z,1.90
2022-11-02T14:46:47.494Z,1.77
2022-11-02T14:49:22.571Z,2.20
2022-11-02T14:52:09.908Z,1.95
2022-11-02T14:54:40.037Z,1.80
2022-11-02T14:57:08.328Z,1.80
2022-11-02T14:59:35.454Z,2.03
2022-11-02T15:02:13.006Z,2.00
2022-11-02T15:04:47.479Z,1.80
2022-11-02T15:07:19.310Z,1.80
2022-11-02T15:09:54.359Z,2.10
2022-11-02T15:12:27.239Z,2.20
2022-11-02T15:15:02.106Z,1.93
2022-11-02T15:17:29.139Z,1.97
2022-11-02T15:19:59.039Z,2.23
2022-11-02T15:22:26.125Z,2.03
2022-11-02T15:24:54.467Z,2.10
2022-11-02T15:27:22.115Z,2.10
2022-11-02T15:29:50.196Z,2.00
2022-11-02T15:32:22.586Z,2.13
2022-11-02T15:34:51.681Z,1.90
2022-11-02T15:37:30.005Z,2.17
2022-11-02T15:39:58.726Z,2.17
2022-11-02T15:42:42.481Z,2.10
2022-11-02T15:45:33.959Z,2.43
2022-11-02T15:48:30.284Z,2.10
2022-11-02T15:51:13.148Z,2.50
2022-11-02T15:53:40.554Z,2.23
2022-11-02T15:56:13.590Z,2.30
2022-11-02T15:58:43.372Z,2.87
2022-11-02T16:01:14.659Z,2.50
2022-11-02T16:03:52.011Z,3.03
2022-11-02T16:06:28.869Z,3.10
2022-11-02T16:09:00.545Z,2.43
2022-11-02T16:11:28.753Z,2.80
2022-11-02T16:14:15.275Z,4.10
2022-11-02T16:16:49.525Z,3.10
2022-11-02T16:19:20.496Z,2.40
2022-11-02T16:21:48.645Z,2.80
2022-11-02T16:24:15.810Z,4.00
2022-11-02T16:26:43.597Z,3.30
2022-11-02T16:29:10.941Z,3.10
2022-11-02T16:31:40.455Z,2.90
2022-11-02T16:34:10.332Z,2.67
2022-11-02T16:36:38.353Z,2.33
2022-11-02T16:39:16.368Z,2.80
2022-11-02T16:41:47.363Z,2.63
2022-11-02T16:44:34.935Z,2.30
2022-11-02T16:47:08.060Z,2.47
2022-11-02T16:49:36.070Z,2.90
2022-11-02T16:52:20.346Z,9.50
2022-11-02T16:54:47.483Z,4.27
2022-11-02T16:57:18.769Z,3.10
2022-11-02T17:00:07.870Z,2.80
2022-11-02T17:02:37.298Z,2.93
2022-11-02T17:05:06.792Z,2.60
2022-11-02T17:07:36.344Z,3.20
2022-11-02T17:10:04.421Z,2.90
2022-11-02T17:12:31.532Z,3.03
2022-11-02T17:14:58.778Z,2.77
2022-11-02T17:17:25.863Z,2.77
2022-11-02T17:19:57.002Z,3.10
2022-11-02T17:22:25.745Z,2.97
2022-11-02T17:25:08.070Z,3.30
2022-11-02T17:27:39.283Z,3.23
2022-11-02T17:30:29.257Z,2.90
2022-11-02T17:32:59.784Z,3.27
2022-11-02T17:35:27.640Z,3.27
2022-11-02T17:37:54.890Z,3.67
2022-11-02T17:40:22.194Z,2.97
2022-11-02T17:42:58.598Z,2.87
2022-11-02T17:45:29.880Z,3.03
2022-11-02T17:48:00.713Z,2.90
2022-11-02T17:50:31.886Z,3.00
2022-11-02T17:52:59.993Z,3.30
2022-11-02T17:55:28.400Z,3.77
2022-11-02T17:57:56.060Z,3.80
2022-11-02T18:00:23.887Z,3.30
2022-11-02T18:02:52.746Z,3.13
2022-11-02T18:05:24.661Z,3.90
2022-11-02T18:07:52.153Z,3.83
2022-11-02T18:10:20.370Z,4.30
2022-11-02T18:12:47.564Z,4.70
2022-11-02T18:15:16.290Z,3.40
2022-11-02T18:17:43.577Z,3.60
2022-11-02T18:20:11.496Z,3.17
2022-11-02T18:22:39.321Z,3.43
2022-11-02T18:25:07.359Z,3.07
2022-11-02T18:27:35.412Z,3.50
2022-11-02T18:30:02.544Z,4.00
2022-11-02T18:32:29.630Z,3.53
2022-11-02T18:34:56.697Z,3.77
2022-11-02T18:37:23.940Z,3.63
2022-11-02T18:39:51.041Z,4.67
2022-11-02T18:42:18.097Z,4.50
2022-11-02T18:44:45.195Z,4.20
2022-11-02T18:47:12.643Z,5.00
2022-11-02T18:49:39.751Z,5.27
2022-11-02T18:52:06.864Z,4.80
2022-11-02T18:54:33.993Z,3.50
2022-11-02T18:57:01.171Z,4.97
2022-11-02T18:59:28.293Z,5.07
2022-11-02T19:01:55.493Z,5.07
2022-11-02T19:04:22.789Z,4.73
2022-11-02T19:07:11.192Z,4.50
2022-11-02T19:09:41.176Z,5.13
2022-11-02T19:12:17.737Z,4.77
2022-11-02T19:14:45.698Z,5.37
2022-11-02T19:17:13.801Z,4.73
2022-11-02T19:19:42.985Z,5.10
2022-11-02T19:22:12.771Z,5.37
2022-11-02T19:24:40.091Z,5.10
2022-11-02T19:27:08.108Z,5.10
2022-11-02T19:29:35.241Z,5.43
2022-11-02T19:32:02.335Z,5.23
2022-11-02T19:34:30.434Z,5.20
2022-11-02T19:36:57.568Z,5.67
2022-11-02T19:39:24.764Z,6.40
2022-11-02T19:41:52.303Z,6.63
2022-11-02T19:44:19.494Z,6.30
2022-11-02T19:46:46.703Z,5.47
2022-11-02T19:49:13.793Z,5.43
2022-11-02T19:51:41.104Z,6.07
2022-11-02T19:54:08.329Z,5.23
2022-11-02T19:56:36.396Z,6.13
2022-11-02T19:59:04.406Z,5.47
2022-11-02T20:01:32.717Z,6.50
2022-11-02T20:04:00.594Z,6.47
2022-11-02T20:06:29.267Z,6.40
2022-11-02T20:08:57.117Z,6.63
2022-11-02T20:11:25.224Z,7.13
2022-11-02T20:13:52.444Z,27.50
2022-11-02T20:16:19.936Z,18.53
2022-11-02T20:18:48.486Z,13.40
2022-11-02T20:21:16.710Z,9.37
2022-11-02T20:23:44.080Z,9.60
2022-11-02T20:26:12.556Z,10.77
2022-11-02T20:28:40.963Z,9.90
2022-11-02T20:31:08.786Z,7.77
2022-11-02T20:33:36.576Z,6.90
2022-11-02T20:36:04.066Z,7.00
2022-11-02T20:38:31.312Z,6.53
2022-11-02T20:41:24.893Z,6.63
2022-11-02T20:43:52.828Z,6.40
2022-11-02T20:46:39.052Z,6.50
2022-11-02T20:49:21.169Z,6.40
2022-11-02T20:51:52.573Z,6.27
2022-11-02T20:54:20.171Z,6.67
2022-11-02T20:56:47.561Z,6.90
2022-11-02T20:59:14.803Z,6.37
2022-11-02T21:01:42.131Z,7.17
2022-11-02T21:04:09.429Z,7.43
2022-11-02T21:06:36.591Z,7.13
2022-11-02T21:09:09.070Z,7.20
2022-11-02T21:11:57.803Z,7.03
2022-11-02T21:14:24.910Z,6.90
2022-11-02T21:16:52.143Z,7.00
2022-11-02T21:19:19.300Z,7.27
2022-11-02T21:21:46.380Z,7.00
2022-11-02T21:24:13.600Z,7.63
2022-11-02T21:26:40.678Z,7.97
2022-11-02T21:29:07.789Z,10.57
2022-11-02T21:31:34.893Z,15.17
2022-11-02T21:34:02.097Z,13.43
2022-11-02T21:36:29.229Z,11.83
2022-11-02T21:38:56.377Z,9.27
2022-11-02T21:41:29.322Z,8.23
2022-11-02T21:43:56.440Z,8.43
2022-11-02T21:46:27.028Z,8.20
2022-11-02T21:48:55.251Z,8.73
2022-11-02T21:51:22.748Z,7.77
2022-11-02T21:53:50.753Z,7.97
2022-11-02T21:56:19.180Z,8.00
2022-11-02T21:58:47.641Z,7.87
2022-11-02T22:01:39.607Z,8.17
2022-11-02T22:04:07.576Z,9.83
2022-11-02T22:06:35.189Z,9.07
2022-11-02T22:09:02.484Z,8.63
2022-11-02T22:11:29.652Z,8.27
2022-11-02T22:13:58.308Z,8.80
2022-11-02T22:16:27.883Z,8.83
2022-11-02T22:18:55.921Z,8.63
2022-11-02T22:21:23.905Z,9.33
2022-11-02T22:23:51.746Z,9.20
2022-11-02T22:26:19.953Z,9.00
2022-11-02T22:28:47.113Z,8.50
2022-11-02T22:31:22.488Z,9.43
2022-11-02T22:33:50.702Z,8.80
2022-11-02T22:36:19.290Z,8.60
2022-11-02T22:38:53.792Z,8.17
2022-11-02T22:41:22.301Z,7.83
2022-11-02T22:43:50.752Z,8.20
2022-11-02T22:46:17.884Z,9.37
2022-11-02T22:48:44.994Z,8.13
2022-11-02T22:51:12.427Z,8.87
2022-11-02T22:53:39.567Z,8.17
2022-11-02T22:56:07.895Z,8.57
2022-11-02T22:58:35.888Z,8.30
2022-11-02T23:01:03.473Z,9.07
2022-11-02T23:03:31.599Z,8.67
2022-11-02T23:05:58.707Z,9.30
2022-11-02T23:11:17.211Z,8.93
2022-11-02T23:13:44.972Z,8.87
2022-11-02T23:16:21.581Z,8.17
2022-11-02T23:19:07.423Z,8.87
2022-11-02T23:21:34.765Z,7.97
2022-11-02T23:24:20.640Z,8.70
2022-11-02T23:26:49.025Z,7.83
2022-11-02T23:29:51.986Z,8.70
2022-11-02T23:32:28.534Z,9.10
2022-11-02T23:35:15.191Z,9.17
2022-11-02T23:37:42.692Z,8.93
2022-11-02T23:40:10.378Z,8.87
2022-11-02T23:42:37.451Z,9.20
2022-11-02T23:45:05.002Z,9.70
2022-11-02T23:47:50.695Z,9.33
2022-11-02T23:50:37.200Z,9.20
2022-11-02T23:53:23.585Z,9.60
2022-11-02T23:56:10.103Z,9.60
2022-11-02T23:58:38.134Z,9.80
